Time;durP1;ratioP1;P1;durP2;ratioP2;P2;SDS_P1;SDS_P2;PMS_P1;PMS_P2;Temp;Humidity;BMP_temperature;BMP_pressure;BME280_temperature;BME280_humidity;BME280_pressure;Samples;Min_cycle;Max_cycle;Signal;HPM_P1;HPM_P2
2022/07/20 00:01:53;;;;;;;5.88;1.70;;;22.90;92.00;;;;;;5086287;28;20052;-39
2022/07/20 00:04:19;;;;;;;5.35;1.45;;;22.90;92.50;;;;;;5084203;28;20393;-39
2022/07/20 00:06:45;;;;;;;5.40;1.80;;;22.80;92.50;;;;;;5086051;28;20044;-40
2022/07/20 00:11:55;;;;;;;4.45;1.17;;;22.90;91.50;;;;;;5085729;28;20055;-40
2022/07/20 00:14:20;;;;;;;4.55;1.45;;;22.90;91.30;;;;;;5085876;28;20040;-40
2022/07/20 00:16:46;;;;;;;4.93;1.70;;;22.80;92.10;;;;;;5085853;28;20052;-40
2022/07/20 00:19:13;;;;;;;5.35;1.80;;;22.70;92.00;;;;;;5086023;28;20208;-40
2022/07/20 00:21:39;;;;;;;4.05;1.45;;;23.40;90.30;;;;;;5085863;28;20154;-39
2022/07/20 00:24:05;;;;;;;6.13;1.63;;;22.60;92.20;;;;;;5085869;28;20482;-40
2022/07/20 00:26:31;;;;;;;5.25;1.52;;;22.70;92.10;;;;;;5085876;28;20599;-39
2022/07/20 00:28:57;;;;;;;8.43;2.33;;;22.60;92.00;;;;;;5086189;28;20068;-40
2022/07/20 00:31:22;;;;;;;4.43;1.27;;;22.70;92.20;;;;;;5085928;28;20546;-40
2022/07/20 00:33:48;;;;;;;6.57;1.88;;;22.60;92.20;;;;;;5086222;28;20048;-39
2022/07/20 00:36:18;;;;;;;6.90;1.88;;;22.50;92.10;;;;;;5085921;28;20158;-39
2022/07/20 00:38:44;;;;;;;3.83;1.60;;;22.50;92.10;;;;;;5085885;28;20556;-40
2022/07/20 00:41:10;;;;;;;6.40;1.80;;;22.50;92.10;;;;;;5085928;28;20044;-40
2022/07/20 00:43:57;;;;;;;3.50;1.38;;;22.40;91.20;;;;;;5087348;28;20043;-39
2022/07/20 00:46:23;;;;;;;5.22;1.90;;;22.40;91.70;;;;;;5089734;28;20326;-39
2022/07/20 00:48:50;;;;;;;4.95;1.50;;;;;;;;;;5089458;28;20093;-39
2022/07/20 00:51:16;;;;;;;5.18;1.42;;;;;;;;;;5089304;28;20036;-39
2022/07/20 00:53:43;;;;;;;4.93;1.60;;;;;;;;;;5088942;28;20042;-39
2022/07/20 00:56:09;;;;;;;5.40;1.52;;;;;;;;;;5089005;28;20495;-39
2022/07/20 00:58:35;;;;;;;4.85;1.95;;;;;;;;;;5088931;28;20047;-40
2022/07/20 01:01:02;;;;;;;4.45;1.95;;;;;;;;;;5089260;28;20420;-39
2022/07/20 01:03:28;;;;;;;7.13;1.88;;;;;;;;;;5089185;28;20097;-40
2022/07/20 01:05:54;;;;;;;6.47;1.83;;;;;;;;;;5089220;28;20611;-40
2022/07/20 01:08:20;;;;;;;3.60;1.48;;;;;;;;;;5089201;28;20785;-41
2022/07/20 01:10:47;;;;;;;5.55;1.65;;;;;;;;;;5088748;28;20040;-39
2022/07/20 01:13:13;;;;;;;5.75;2.10;;;;;;;;;;5089155;28;20071;-39
2022/07/20 01:15:39;;;;;;;6.22;1.80;;;;;;;;;;5088837;28;20040;-39
2022/07/20 01:18:05;;;;;;;6.35;1.92;;;;;;;;;;5089058;28;20055;-40
2022/07/20 01:20:31;;;;;;;2.97;1.67;;;;;;;;;;5088432;28;20044;-39
2022/07/20 01:22:57;;;;;;;5.15;1.83;;;;;;;;;;5088913;28;20296;-39
2022/07/20 01:25:23;;;;;;;6.50;1.75;;;;;;;;;;5086915;28;20465;-40
2022/07/20 01:27:49;;;;;;;4.15;1.65;;;;;;;;;;5088162;28;20087;-39
2022/07/20 01:30:15;;;;;;;4.80;2.00;;;;;;;;;;5088570;28;20477;-39
2022/07/20 01:32:41;;;;;;;6.88;1.80;;;;;;;;;;5088134;28;20513;-39
2022/07/20 01:35:07;;;;;;;6.55;2.25;;;;;;;;;;5088371;28;20492;-39
2022/07/20 01:37:34;;;;;;;5.32;1.60;;;;;;;;;;5088568;28;20413;-40
2022/07/20 01:40:00;;;;;;;5.60;2.08;;;;;;;;;;5088531;28;20079;-39
2022/07/20 01:42:26;;;;;;;6.13;1.90;;;;;;;;;;5088351;28;20042;-39
2022/07/20 01:44:52;;;;;;;5.72;1.98;;;;;;;;;;5088472;28;20044;-39
2022/07/20 01:47:18;;;;;;;5.78;1.50;;;;;;;;;;5088303;28;20134;-40
2022/07/20 01:49:44;;;;;;;4.15;1.52;;;;;;;;;;5087846;28;20494;-39
2022/07/20 01:52:10;;;;;;;5.70;1.58;;;;;;;;;;5087820;28;20044;-39
2022/07/20 01:54:36;;;;;;;5.95;1.90;;;;;;;;;;5087201;28;20141;-40
2022/07/20 01:57:02;;;;;;;5.90;1.65;;;;;;;;;;5088441;28;20049;-39
2022/07/20 01:59:28;;;;;;;6.97;1.98;;;;;;;;;;5087867;28;20040;-39
2022/07/20 02:01:54;;;;;;;8.02;1.85;;;;;;;;;;5088343;28;20068;-39
2022/07/20 02:04:20;;;;;;;5.53;1.77;;;;;;;;;;5088654;28;20047;-40
2022/07/20 02:06:46;;;;;;;7.57;1.85;;;;;;;;;;5086297;28;20047;-40
2022/07/20 02:09:12;;;;;;;7.28;2.35;;;;;;;;;;5087837;28;20044;-40
2022/07/20 02:11:38;;;;;;;4.40;2.20;;;;;;;;;;5086597;28;20052;-39
2022/07/20 02:14:04;;;;;;;4.75;1.80;;;;;;;;;;5085882;28;20395;-39
2022/07/20 02:16:30;;;;;;;4.80;2.20;;;;;;;;;;5086959;28;20056;-40
2022/07/20 02:18:56;;;;;;;6.18;2.25;;;;;;;;;;5087540;28;20052;-39
2022/07/20 02:21:23;;;;;;;3.60;1.70;;;;;;;;;;5087689;28;20063;-39
2022/07/20 02:23:49;;;;;;;6.82;2.13;;;;;;;;;;5087294;28;20422;-40
2022/07/20 02:26:16;;;;;;;5.78;1.77;;;;;;;;;;5087620;28;20044;-40
2022/07/20 02:28:42;;;;;;;5.03;1.88;;;;;;;;;;5087252;28;20088;-39
2022/07/20 02:31:08;;;;;;;4.97;1.52;;;;;;;;;;5087552;28;20129;-39
2022/07/20 02:33:34;;;;;;;7.97;1.73;;;;;;;;;;5087301;28;20036;-39
2022/07/20 02:36:00;;;;;;;5.00;1.92;;;;;;;;;;5087489;28;20128;-39
2022/07/20 02:38:27;;;;;;;4.57;1.50;;;;;;;;;;5086897;28;20054;-39
2022/07/20 02:40:53;;;;;;;5.65;2.05;;;;;;;;;;5087198;28;20151;-39
2022/07/20 02:43:19;;;;;;;6.75;2.10;;;;;;;;;;5087319;28;20044;-39
2022/07/20 02:45:45;;;;;;;4.63;1.75;;;;;;;;;;5085172;28;20048;-40
2022/07/20 02:48:11;;;;;;;4.68;1.73;;;;;;;;;;5087396;28;20049;-39
2022/07/20 02:50:38;;;;;;;5.28;1.55;;;;;;;;;;5086996;28;20493;-40
2022/07/20 02:53:05;;;;;;;4.63;1.80;;;;;;;;;;5087404;28;20048;-40
2022/07/20 02:55:31;;;;;;;4.68;1.92;;;;;;;;;;5087388;28;20047;-39
2022/07/20 02:57:57;;;;;;;5.15;1.85;;;;;;;;;;5087201;28;20248;-39
2022/07/20 03:00:23;;;;;;;6.05;1.98;;;;;;;;;;5087411;28;20039;-40
2022/07/20 03:02:49;;;;;;;6.18;2.15;;;20.90;73.60;;;;;;5086911;28;20084;-40
2022/07/20 03:05:15;;;;;;;5.35;2.05;;;20.90;75.70;;;;;;5087178;28;20443;-39
2022/07/20 03:07:41;;;;;;;4.03;2.05;;;20.90;75.80;;;;;;5087210;28;20059;-40
2022/07/20 03:10:08;;;;;;;8.18;2.33;;;20.90;75.80;;;;;;5087340;28;20048;-40
2022/07/20 03:12:34;;;;;;;8.15;1.90;;;21.00;75.60;;;;;;5086790;28;20067;-39
2022/07/20 03:15:00;;;;;;;3.80;2.30;;;20.90;76.40;;;;;;5086783;28;20098;-39
2022/07/20 03:17:26;;;;;;;4.05;1.60;;;20.90;76.90;;;;;;5086825;28;20052;-40
2022/07/20 03:19:52;;;;;;;4.70;1.60;;;21.10;77.30;;;;;;5087318;28;20051;-39
2022/07/20 03:22:17;;;;;;;6.00;2.03;;;20.80;77.60;;;;;;5087154;28;20040;-39
2022/07/20 03:24:43;;;;;;;7.38;2.25;;;21.00;78.10;;;;;;5086681;28;20127;-40
2022/07/20 03:27:09;;;;;;;4.55;2.20;;;20.80;78.50;;;;;;5087025;28;20119;-39
2022/07/20 03:29:36;;;;;;;5.32;2.30;;;20.60;78.40;;;;;;5086594;28;20043;-40
2022/07/20 03:32:01;;;;;;;6.50;2.60;;;20.60;78.60;;;;;;5086913;28;20040;-40
2022/07/20 03:34:27;;;;;;;7.22;1.83;;;20.60;78.90;;;;;;5086506;28;20519;-40
2022/07/20 03:36:53;;;;;;;4.60;2.63;;;20.40;79.60;;;;;;5086300;28;20470;-39
2022/07/20 03:39:18;;;;;;;6.25;1.55;;;20.70;80.30;;;;;;5086577;28;20093;-40
2022/07/20 03:41:44;;;;;;;7.38;2.00;;;20.60;81.20;;;;;;5086572;28;20418;-39
2022/07/20 03:44:10;;;;;;;4.28;2.03;;;20.50;81.80;;;;;;5086443;28;20067;-39
2022/07/20 03:46:36;;;;;;;6.15;2.33;;;20.50;82.40;;;;;;5086479;28;20040;-40
2022/07/20 03:49:01;;;;;;;4.43;1.83;;;20.00;82.30;;;;;;5086722;28;20120;-39
2022/07/20 03:51:27;;;;;;;7.47;2.22;;;20.50;82.90;;;;;;5086461;28;20048;-39
2022/07/20 03:53:53;;;;;;;5.82;1.92;;;20.50;83.50;;;;;;5086157;28;20463;-39
2022/07/20 03:56:20;;;;;;;5.70;1.73;;;20.50;83.90;;;;;;5086384;28;20043;-40
2022/07/20 03:58:45;;;;;;;9.20;2.85;;;20.40;84.20;;;;;;5086049;28;20083;-40
2022/07/20 04:01:11;;;;;;;5.68;2.03;;;20.30;84.20;;;;;;5086406;28;20080;-39
2022/07/20 04:03:37;;;;;;;4.22;2.25;;;20.50;84.20;;;;;;5085970;28;20043;-39
2022/07/20 04:06:03;;;;;;;5.57;2.22;;;20.40;84.30;;;;;;5086297;28;20048;-40
2022/07/20 04:08:29;;;;;;;5.97;1.75;;;20.50;84.60;;;;;;5086256;28;20043;-39
2022/07/20 04:10:54;;;;;;;8.02;2.15;;;20.40;84.90;;;;;;5083808;28;20047;-40
2022/07/20 04:13:20;;;;;;;4.82;2.10;;;20.50;85.10;;;;;;5086344;28;20061;-39
2022/07/20 04:15:46;;;;;;;6.03;2.20;;;20.50;85.20;;;;;;5086240;28;20090;-41
2022/07/20 04:18:12;;;;;;;7.07;2.03;;;20.50;85.60;;;;;;5087342;28;20040;-40
2022/07/20 04:20:37;;;;;;;4.95;1.88;;;20.50;85.60;;;;;;5090166;28;20097;-39
2022/07/20 04:23:03;;;;;;;2.55;1.67;;;20.60;85.60;;;;;;5090535;28;20135;-40
2022/07/20 04:25:29;;;;;;;8.40;2.60;;;20.60;85.70;;;;;;5089917;28;20071;-41
2022/07/20 04:27:55;;;;;;;5.90;2.03;;;20.70;85.90;;;;;;5089784;28;20059;-39
2022/07/20 04:30:21;;;;;;;6.95;1.95;;;20.70;86.80;;;;;;5090437;28;20105;-39
2022/07/20 04:32:46;;;;;;;3.70;2.20;;;20.70;86.70;;;;;;5089748;28;20044;-40
2022/07/20 04:35:12;;;;;;;5.05;2.47;;;20.80;86.50;;;;;;5089472;28;20036;-39
2022/07/20 04:37:38;;;;;;;4.82;1.70;;;20.80;86.70;;;;;;5090067;28;20134;-39
2022/07/20 04:40:05;;;;;;;6.18;1.67;;;20.90;86.50;;;;;;5089690;28;20031;-39
2022/07/20 04:42:31;;;;;;;6.25;2.33;;;20.90;86.10;;;;;;5089710;28;20083;-39
2022/07/20 04:44:57;;;;;;;5.18;2.00;;;21.00;86.80;;;;;;5089075;28;20052;-39
2022/07/20 04:47:23;;;;;;;4.28;1.88;;;21.00;86.50;;;;;;5089297;28;20435;-40
2022/07/20 04:49:48;;;;;;;5.85;1.88;;;21.10;87.00;;;;;;5089083;28;20500;-40
2022/07/20 04:52:14;;;;;;;5.97;2.50;;;21.10;86.90;;;;;;5089068;28;20083;-39
2022/07/20 04:54:41;;;;;;;4.13;1.92;;;21.20;87.00;;;;;;5088823;28;20090;-39
2022/07/20 04:57:07;;;;;;;4.47;1.77;;;21.20;86.70;;;;;;5089011;28;20044;-40
2022/07/20 04:59:32;;;;;;;6.00;2.20;;;21.30;86.40;;;;;;5089304;28;20142;-39
2022/07/20 05:01:58;;;;;;;5.75;2.13;;;21.30;86.60;;;;;;5089189;28;20390;-40
2022/07/20 05:04:24;;;;;;;3.22;1.83;;;21.40;87.00;;;;;;5089091;28;20082;-40
2022/07/20 05:06:50;;;;;;;4.63;1.98;;;21.50;87.50;;;;;;5088934;28;20397;-40
2022/07/20 05:09:15;;;;;;;5.63;2.28;;;21.60;88.10;;;;;;5088693;28;20052;-39
2022/07/20 05:11:41;;;;;;;5.00;2.55;;;21.60;88.60;;;;;;5088372;28;20036;-40
2022/07/20 05:14:08;;;;;;;4.10;2.20;;;21.60;89.10;;;;;;5089102;28;20044;-39
2022/07/20 05:16:34;;;;;;;8.02;2.33;;;21.60;89.20;;;;;;5088852;28;20473;-40
2022/07/20 05:19:00;;;;;;;5.43;2.42;;;21.60;89.90;;;;;;5086647;28;20060;-40
2022/07/20 05:21:26;;;;;;;8.68;2.47;;;21.60;90.30;;;;;;5088701;28;20055;-40
2022/07/20 05:23:52;;;;;;;9.20;2.75;;;21.60;90.00;;;;;;5088678;28;20489;-39
2022/07/20 05:26:21;;;;;;;5.10;2.60;;;21.60;90.00;;;;;;5088410;28;20051;-40
2022/07/20 05:28:46;;;;;;;7.80;2.40;;;21.70;89.20;;;;;;5088227;28;20036;-40
2022/07/20 05:31:15;;;;;;;6.82;2.20;;;21.80;88.20;;;;;;5087272;28;20120;-39
2022/07/20 05:33:42;;;;;;;4.88;1.95;;;22.00;85.90;;;;;;5088399;28;20044;-40
2022/07/20 05:36:08;;;;;;;8.35;2.35;;;22.20;87.50;;;;;;5087981;28;20084;-40
2022/07/20 05:38:34;;;;;;;5.15;2.25;;;22.30;87.20;;;;;;5088599;28;20079;-40
2022/07/20 05:41:00;;;;;;;9.75;2.17;;;22.50;87.00;;;;;;5088181;28;20811;-39
2022/07/20 05:43:26;;;;;;;4.07;2.28;;;22.70;85.30;;;;;;5088398;28;20040;-40
2022/07/20 05:45:52;;;;;;;7.45;2.15;;;22.90;80.20;;;;;;5088413;28;20051;-39
2022/07/20 05:48:17;;;;;;;2.80;1.55;;;23.80;81.70;;;;;;5088061;28;20043;-40
2022/07/20 05:50:44;;;;;;;6.63;2.50;;;24.40;89.20;;;;;;5088200;28;20040;-40
2022/07/20 05:53:10;;;;;;;4.85;1.77;;;24.70;90.50;;;;;;5087803;28;20503;-40
2022/07/20 05:55:37;;;;;;;5.80;2.00;;;;;;;;;;5087777;28;20122;-40
2022/07/20 05:58:04;;;;;;;4.95;2.55;;;24.70;87.50;;;;;;5087489;28;20539;-39
2022/07/20 06:00:30;;;;;;;4.25;1.70;;;25.00;80.30;;;;;;5087582;28;20124;-40
2022/07/20 06:02:56;;;;;;;6.47;1.75;;;25.00;82.40;;;;;;5088004;28;20082;-40
2022/07/20 06:05:22;;;;;;;5.68;2.45;;;;;;;;;;5087506;28;20075;-40
2022/07/20 06:07:48;;;;;;;6.65;2.15;;;25.50;58.40;;;;;;5088050;28;20150;-40
2022/07/20 06:10:14;;;;;;;8.05;1.98;;;25.50;58.80;;;;;;5087306;28;20664;-40
2022/07/20 06:12:39;;;;;;;3.85;2.50;;;25.80;59.40;;;;;;5088481;28;20044;-40
2022/07/20 06:15:05;;;;;;;5.07;1.50;;;27.10;58.10;;;;;;5087355;28;20054;-42
2022/07/20 06:17:38;;;;;;;4.38;2.40;;;27.40;56.30;;;;;;5087331;28;20047;-40
2022/07/20 06:20:14;;;;;;;5.60;2.08;;;27.40;56.50;;;;;;5087805;28;20043;-40
2022/07/20 06:22:41;;;;;;;4.93;1.95;;;27.40;57.70;;;;;;5087520;28;20485;-40
2022/07/20 06:25:10;;;;;;;7.57;2.00;;;27.60;56.90;;;;;;5087086;28;20052;-40
2022/07/20 06:27:36;;;;;;;6.43;2.15;;;27.70;57.00;;;;;;5087545;28;20051;-40
2022/07/20 06:30:04;;;;;;;5.85;1.75;;;28.20;57.00;;;;;;5087513;28;20059;-41
2022/07/20 06:32:30;;;;;;;6.13;1.88;;;29.00;55.70;;;;;;5087659;28;20044;-40
2022/07/20 06:34:56;;;;;;;5.95;1.70;;;30.20;54.50;;;;;;5085490;28;20425;-40
2022/07/20 06:37:22;;;;;;;8.90;1.83;;;32.70;65.70;;;;;;5087063;28;20039;-40
2022/07/20 06:39:47;;;;;;;6.47;1.67;;;34.40;57.50;;;;;;5087209;28;20047;-40
2022/07/20 06:42:14;;;;;;;4.90;2.00;;;;;;;;;;5086971;28;20068;-40
2022/07/20 06:44:41;;;;;;;6.82;1.83;;;37.10;48.10;;;;;;5087289;28;20047;-41
2022/07/20 06:47:07;;;;;;;6.07;2.10;;;37.70;46.20;;;;;;5086414;28;20043;-41
2022/07/20 06:49:33;;;;;;;4.80;1.63;;;38.70;45.50;;;;;;5086549;28;20054;-42
2022/07/20 06:51:59;;;;;;;5.82;1.90;;;39.60;44.00;;;;;;5087089;28;20040;-40
2022/07/20 06:54:24;;;;;;;5.20;1.70;;;40.10;43.10;;;;;;5086546;28;20140;-40
2022/07/20 06:56:50;;;;;;;5.85;1.98;;;41.00;42.10;;;;;;5086751;28;20489;-40
2022/07/20 06:59:16;;;;;;;5.53;1.33;;;41.50;40.90;;;;;;5086599;28;20281;-42
2022/07/20 07:01:41;;;;;;;3.33;1.33;;;42.10;41.50;;;;;;5086979;28;20138;-40
2022/07/20 07:04:07;;;;;;;6.80;1.88;;;42.50;40.00;;;;;;5086931;28;20069;-40
2022/07/20 07:06:33;;;;;;;5.63;2.10;;;43.00;40.00;;;;;;5086544;28;20063;-40
2022/07/20 07:08:59;;;;;;;5.18;1.88;;;43.40;39.40;;;;;;5087516;28;20115;-41
2022/07/20 07:11:26;;;;;;;3.55;1.45;;;43.70;39.50;;;;;;5087125;28;20494;-41
2022/07/20 07:13:52;;;;;;;10.02;2.55;;;44.00;39.40;;;;;;5087443;28;20116;-41
2022/07/20 07:16:18;;;;;;;6.13;1.73;;;44.40;37.90;;;;;;5085921;28;20653;-40
2022/07/20 07:18:43;;;;;;;7.93;1.75;;;44.70;36.80;;;;;;5087148;28;20429;-41
2022/07/20 07:21:09;;;;;;;6.22;1.80;;;44.80;36.50;;;;;;5086754;28;20047;-40
2022/07/20 07:23:35;;;;;;;6.15;1.77;;;45.00;35.70;;;;;;5086852;28;20486;-40
2022/07/20 07:26:01;;;;;;;4.47;1.85;;;45.20;36.40;;;;;;5087080;28;20036;-40
2022/07/20 07:28:27;;;;;;;3.95;1.70;;;45.30;37.10;;;;;;5086082;28;20059;-41
2022/07/20 07:30:52;;;;;;;5.57;2.05;;;45.70;35.60;;;;;;5085247;28;20040;-41
2022/07/20 07:33:24;;;;;;;5.05;1.35;;;46.10;35.70;;;;;;5085662;28;20054;-42
2022/07/20 07:35:50;;;;;;;7.88;1.67;;;46.40;35.60;;;;;;5085675;28;20076;-43
2022/07/20 07:38:16;;;;;;;4.07;1.88;;;46.90;35.50;;;;;;5086509;28;20040;-41
2022/07/20 07:40:42;;;;;;;3.90;1.63;;;47.10;35.90;;;;;;5085816;28;20074;-41
2022/07/20 07:43:07;;;;;;;5.82;1.92;;;47.40;35.00;;;;;;5086380;28;20110;-41
2022/07/20 07:45:33;;;;;;;6.20;2.05;;;47.40;35.20;;;;;;5085723;28;20058;-42
2022/07/20 07:47:59;;;;;;;4.85;2.10;;;47.60;35.20;;;;;;5086622;28;20047;-42
2022/07/20 07:50:24;;;;;;;7.07;1.98;;;47.60;34.90;;;;;;5086562;28;20048;-42
2022/07/20 07:52:50;;;;;;;7.15;2.10;;;47.80;34.70;;;;;;5086938;28;20044;-42
2022/07/20 07:55:16;;;;;;;4.45;1.90;;;47.90;34.50;;;;;;5090579;28;20092;-41
2022/07/20 07:57:42;;;;;;;5.40;2.10;;;48.20;34.50;;;;;;5090264;28;20127;-41
2022/07/20 08:00:08;;;;;;;5.88;1.73;;;48.20;34.20;;;;;;5090520;28;20054;-42
2022/07/20 08:02:34;;;;;;;6.57;2.08;;;48.20;34.60;;;;;;5089948;28;20490;-42
2022/07/20 08:05:00;;;;;;;7.32;1.98;;;48.40;34.40;;;;;;5090112;28;20036;-40
2022/07/20 08:07:26;;;;;;;5.97;1.85;;;48.50;33.90;;;;;;5089767;28;20042;-40
2022/07/20 08:09:52;;;;;;;4.90;2.20;;;48.60;34.20;;;;;;5090158;28;20048;-40
2022/07/20 08:12:17;;;;;;;5.95;2.50;;;48.70;34.50;;;;;;5089700;28;20428;-40
2022/07/20 08:14:43;;;;;;;4.95;2.10;;;48.90;34.80;;;;;;5088752;28;20052;-41
2022/07/20 08:17:09;;;;;;;5.22;2.15;;;49.00;34.30;;;;;;5089446;28;20060;-41
2022/07/20 08:19:34;;;;;;;7.13;2.50;;;49.10;34.70;;;;;;5089452;28;20474;-40
2022/07/20 08:22:00;;;;;;;5.30;3.22;;;49.40;34.40;;;;;;5089550;28;20087;-40
2022/07/20 08:24:25;;;;;;;6.05;2.80;;;49.20;34.20;;;;;;5087944;28;20479;-40
2022/07/20 08:26:51;;;;;;;5.72;2.40;;;49.20;33.80;;;;;;5089672;28;20052;-41
2022/07/20 08:29:17;;;;;;;10.95;2.92;;;48.90;34.30;;;;;;5089586;28;20585;-40
2022/07/20 08:31:43;;;;;;;4.63;2.38;;;48.90;34.40;;;;;;5088990;28;20051;-42
2022/07/20 08:34:08;;;;;;;7.28;2.80;;;48.90;34.90;;;;;;5089359;28;20089;-40
2022/07/20 08:36:34;;;;;;;7.03;3.83;;;49.00;34.70;;;;;;5089032;28;20075;-41
2022/07/20 08:39:01;;;;;;;7.28;4.07;;;48.60;34.90;;;;;;5089691;28;20079;-40
2022/07/20 08:41:27;;;;;;;8.05;4.75;;;48.10;35.30;;;;;;5089532;28;20039;-39
2022/07/20 08:43:53;;;;;;;10.90;5.72;;;47.80;35.80;;;;;;5089488;28;20036;-41
2022/07/20 08:46:21;;;;;;;11.15;5.43;;;47.30;36.30;;;;;;5089093;28;20089;-40
2022/07/20 08:48:48;;;;;;;7.80;5.03;;;46.70;36.80;;;;;;5088047;28;20040;-40
2022/07/20 08:51:14;;;;;;;10.23;5.97;;;46.10;37.40;;;;;;5088559;28;20401;-40
2022/07/20 08:53:39;;;;;;;8.75;6.65;;;45.60;38.20;;;;;;5089205;28;20436;-40
2022/07/20 08:56:05;;;;;;;10.73;5.97;;;45.00;38.60;;;;;;5089436;28;20044;-40
2022/07/20 08:58:31;;;;;;;9.68;6.35;;;44.60;38.90;;;;;;5089187;28;20420;-40
2022/07/20 09:00:57;;;;;;;9.32;7.30;;;44.70;39.40;;;;;;5089457;28;20159;-40
2022/07/20 09:03:22;;;;;;;11.90;8.10;;;45.30;40.00;;;;;;5089243;28;20048;-41
2022/07/20 09:06:05;;;;;;;13.73;8.48;;;45.50;39.40;;;;;;5088648;28;20443;-41
2022/07/20 09:08:31;;;;;;;12.57;8.82;;;45.00;39.90;;;;;;5089651;28;20140;-40
2022/07/20 09:11:01;;;;;;;11.82;9.15;;;44.80;39.90;;;;;;5089150;28;20131;-40
2022/07/20 09:13:31;;;;;;;11.25;8.75;;;45.00;40.30;;;;;;5089294;28;20048;-40
2022/07/20 09:15:58;;;;;;;10.30;8.32;;;44.80;40.70;;;;;;5088678;28;20060;-40
2022/07/20 09:18:27;;;;;;;12.18;7.70;;;45.00;40.30;;;;;;5088758;28;20043;-40
2022/07/20 09:20:59;;;;;;;10.35;9.10;;;45.40;40.20;;;;;;5088726;28;20570;-40
2022/07/20 09:23:40;;;;;;;11.70;9.10;;;45.70;40.80;;;;;;5088908;28;20068;-40
2022/07/20 09:26:17;;;;;;;14.35;9.50;;;45.40;40.80;;;;;;5088896;28;20040;-40
2022/07/20 09:28:44;;;;;;;19.75;10.82;;;44.80;40.90;;;;;;5088145;28;20044;-39
2022/07/20 09:31:14;;;;;;;14.65;10.48;;;44.20;41.40;;;;;;5088825;28;20096;-41
2022/07/20 09:33:48;;;;;;;16.02;10.90;;;44.10;42.50;;;;;;5088772;28;20044;-40
2022/07/20 09:36:14;;;;;;;14.13;11.50;;;43.80;41.40;;;;;;5088912;28;20067;-40
2022/07/20 09:38:41;;;;;;;14.68;11.23;;;43.50;41.90;;;;;;5088318;28;20048;-40
2022/07/20 09:41:31;;;;;;;16.08;11.57;;;43.00;42.50;;;;;;5087227;28;20429;-40
2022/07/20 09:43:59;;;;;;;17.92;10.50;;;42.70;42.70;;;;;;5088420;28;20420;-41
2022/07/20 09:46:33;;;;;;;16.52;12.40;;;42.90;42.40;;;;;;5088761;28;20051;-41
2022/07/20 09:49:02;;;;;;;14.07;10.60;;;43.00;42.90;;;;;;5087897;28;20036;-40
2022/07/20 09:51:33;;;;;;;19.65;12.23;;;42.80;42.60;;;;;;5088228;28;20427;-41
2022/07/20 09:54:02;;;;;;;16.52;10.45;;;42.50;42.60;;;;;;5088274;28;20374;-40
2022/07/20 09:56:27;;;;;;;16.42;12.13;;;41.90;42.80;;;;;;5088169;28;20703;-40
2022/07/20 09:58:56;;;;;;;17.92;12.77;;;41.60;43.80;;;;;;5088225;28;20138;-39
2022/07/20 10:01:27;;;;;;;17.08;12.80;;;41.40;44.50;;;;;;5088807;28;20577;-40
2022/07/20 10:03:55;;;;;;;12.65;11.05;;;41.50;44.60;;;;;;5088473;28;20044;-41
2022/07/20 10:06:22;;;;;;;17.17;11.48;;;41.30;43.70;;;;;;5088466;28;20094;-40
2022/07/20 10:08:49;;;;;;;16.40;13.07;;;41.30;43.80;;;;;;5087663;28;20048;-40
2022/07/20 10:11:16;;;;;;;17.63;12.50;;;41.50;44.10;;;;;;5088254;28;20036;-41
2022/07/20 10:13:43;;;;;;;16.80;11.50;;;41.60;43.80;;;;;;5088352;28;20161;-40
2022/07/20 10:16:45;;;;;;;16.17;11.40;;;41.50;43.00;;;;;;5086287;28;20052;-40
2022/07/20 10:19:12;;;;;;;15.93;11.77;;;41.20;42.90;;;;;;5073597;28;20040;-41
2022/07/20 10:21:43;;;;;;;13.85;11.93;;;40.90;43.40;;;;;;5087597;28;20076;-42
2022/07/20 10:24:30;;;;;;;16.35;11.43;;;40.70;43.90;;;;;;5087724;28;20043;-41
2022/07/20 10:27:18;;;;;;;15.10;12.10;;;40.50;44.10;;;;;;5087435;28;20366;-42
2022/07/20 10:29:46;;;;;;;15.75;11.23;;;40.10;45.10;;;;;;5087576;28;20599;-40
2022/07/20 10:32:17;;;;;;;16.00;12.23;;;39.70;45.20;;;;;;5087470;28;20035;-40
2022/07/20 10:34:44;;;;;;;;;;;39.40;46.30;;;;;;5087115;28;20518;-40
2022/07/20 10:37:49;;;;;;;14.45;10.85;;;38.70;45.80;;;;;;5086265;28;20449;-40
2022/07/20 10:40:20;;;;;;;16.70;10.60;;;38.10;46.50;;;;;;5085976;28;20062;-41
2022/07/20 10:43:13;;;;;;;13.18;10.23;;;37.60;47.50;;;;;;5086779;28;20040;-40
2022/07/20 10:45:39;;;;;;;11.85;10.48;;;37.40;47.70;;;;;;5086766;28;20079;-39
2022/07/20 10:48:14;;;;;;;15.50;12.32;;;37.30;48.10;;;;;;5086810;28;20127;-40
2022/07/20 10:50:44;;;;;;;16.20;10.00;;;37.00;47.90;;;;;;5086838;28;20040;-40
2022/07/20 10:53:10;;;;;;;11.85;10.50;;;36.80;48.30;;;;;;5085919;28;20119;-40
2022/07/20 10:55:36;;;;;;;14.15;9.95;;;36.60;48.90;;;;;;5086800;28;20048;-40
2022/07/20 10:58:09;;;;;;;12.35;9.73;;;36.30;49.40;;;;;;5085167;28;20036;-41
2022/07/20 11:00:36;;;;;;;14.07;9.98;;;35.90;49.40;;;;;;5087419;28;20130;-42
2022/07/20 11:03:10;;;;;;;10.32;9.13;;;35.50;50.10;;;;;;5085914;28;20063;-42
2022/07/20 11:05:36;;;;;;;11.85;8.60;;;35.10;53.60;;;;;;5086757;28;20079;-39
2022/07/20 11:08:09;;;;;;;11.77;9.00;;;34.90;76.90;;;;;;5086573;28;20091;-41
2022/07/20 11:10:35;;;;;;;12.63;9.18;;;34.20;51.60;;;;;;5087203;28;20058;-40
2022/07/20 11:13:19;;;;;;;14.85;9.63;;;33.80;55.40;;;;;;5086773;28;20044;-40
2022/07/20 11:15:53;;;;;;;11.55;8.88;;;33.50;53.70;;;;;;5086121;28;20568;-40
2022/07/20 11:18:22;;;;;;;11.57;8.95;;;33.30;54.10;;;;;;5086830;28;20040;-40
2022/07/20 11:20:54;;;;;;;9.10;7.85;;;33.10;55.00;;;;;;5087322;28;20086;-41
2022/07/20 11:23:25;;;;;;;8.82;7.50;;;32.60;59.70;;;;;;5087385;28;20032;-40
2022/07/20 11:25:52;;;;;;;11.77;7.22;;;32.80;59.20;;;;;;5086974;28;20504;-40
2022/07/20 11:28:20;;;;;;;10.57;7.30;;;32.60;61.80;;;;;;5085861;28;20624;-40
2022/07/20 11:30:48;;;;;;;10.90;8.32;;;32.40;64.90;;;;;;5086584;28;20501;-40
2022/07/20 11:33:21;;;;;;;10.00;6.75;;;32.40;64.00;;;;;;5086290;28;20449;-39
2022/07/20 11:35:47;;;;;;;12.05;7.43;;;32.30;67.60;;;;;;5086617;28;20055;-40
2022/07/20 11:38:13;;;;;;;11.07;7.15;;;32.10;71.00;;;;;;5085915;28;20044;-39
2022/07/20 11:40:38;;;;;;;10.38;6.25;;;32.00;61.70;;;;;;5085921;28;20048;-39
2022/07/20 11:43:15;;;;;;;10.75;6.43;;;32.00;63.50;;;;;;5086271;28;20054;-40
2022/07/20 11:45:41;;;;;;;12.45;6.57;;;32.00;71.60;;;;;;5086816;28;20048;-41
2022/07/20 11:48:22;;;;;;;12.88;7.15;;;31.80;74.40;;;;;;5086159;28;20044;-40
2022/07/20 11:50:48;;;;;;;12.60;6.53;;;31.80;75.80;;;;;;5085878;28;20493;-41
2022/07/20 11:53:32;;;;;;;10.38;6.50;;;31.70;75.30;;;;;;5085418;28;20493;-40
2022/07/20 11:56:00;;;;;;;7.28;6.45;;;31.70;75.60;;;;;;5085672;28;20048;-42
2022/07/20 11:58:32;;;;;;;8.85;6.80;;;31.60;75.50;;;;;;5085949;28;20098;-39
2022/07/20 12:01:01;;;;;;;14.70;7.35;;;31.60;77.80;;;;;;5084879;28;20047;-40
2022/07/20 12:03:36;;;;;;;12.57;6.93;;;31.50;78.30;;;;;;5085478;28;20542;-40
2022/07/20 12:06:06;;;;;;;8.82;6.65;;;31.50;79.40;;;;;;5085913;28;20047;-40
2022/07/20 12:08:32;;;;;;;10.55;6.38;;;31.30;80.50;;;;;;5086036;28;20058;-40
2022/07/20 12:10:58;;;;;;;10.23;6.63;;;31.50;82.70;;;;;;5085989;28;20044;-42
2022/07/20 12:13:24;;;;;;;8.98;7.25;;;31.50;87.00;;;;;;5086164;28;20048;-42
2022/07/20 12:16:00;;;;;;;10.65;6.45;;;31.50;85.60;;;;;;5085858;28;20167;-40
2022/07/20 12:18:32;;;;;;;9.50;7.13;;;31.40;82.40;;;;;;5085713;28;20649;-41
2022/07/20 12:21:00;;;;;;;9.50;6.00;;;31.50;80.10;;;;;;5086128;28;20040;-41
2022/07/20 12:23:26;;;;;;;11.18;6.57;;;31.40;75.00;;;;;;5085646;28;20044;-41
2022/07/20 12:25:52;;;;;;;10.55;6.68;;;31.30;71.90;;;;;;5085587;28;20497;-40
2022/07/20 12:28:47;;;;;;;8.88;6.05;;;31.30;69.40;;;;;;5085449;28;20055;-40
2022/07/20 12:31:16;;;;;;;9.40;6.38;;;31.30;69.00;;;;;;5076966;28;20060;-40
2022/07/20 12:34:11;;;;;;;10.18;6.20;;;31.30;68.40;;;;;;5086299;28;20063;-41
2022/07/20 12:36:43;;;;;;;8.32;5.82;;;31.20;65.80;;;;;;5086239;28;20085;-40
2022/07/20 12:39:14;;;;;;;11.60;6.28;;;31.30;66.50;;;;;;5086904;28;20105;-40
2022/07/20 12:41:40;;;;;;;9.63;5.88;;;31.30;69.30;;;;;;5089870;28;20072;-40
2022/07/20 12:44:29;;;;;;;8.25;6.07;;;31.30;70.00;;;;;;5089099;28;20061;-42
2022/07/20 12:46:56;;;;;;;8.57;5.05;;;31.40;68.40;;;;;;5089821;28;20111;-41
2022/07/20 12:49:25;;;;;;;7.32;5.10;;;31.40;72.70;;;;;;5089543;28;20150;-41
2022/07/20 12:51:51;;;;;;;8.60;4.82;;;31.40;69.10;;;;;;5089129;28;20122;-40
2022/07/20 12:54:18;;;;;;;7.55;4.80;;;31.30;67.80;;;;;;5089233;28;20089;-40
2022/07/20 12:56:45;;;;;;;6.65;4.50;;;31.30;68.80;;;;;;5089156;28;20059;-39
2022/07/20 12:59:11;;;;;;;7.90;4.10;;;31.20;68.00;;;;;;5088984;28;20043;-39
2022/07/20 13:01:37;;;;;;;7.60;3.85;;;31.20;67.80;;;;;;5088936;28;20620;-40
2022/07/20 13:04:03;;;;;;;7.25;4.22;;;31.10;66.70;;;;;;5089220;28;20466;-40
2022/07/20 13:06:35;;;;;;;8.43;4.28;;;31.10;65.90;;;;;;5089111;28;20452;-40
2022/07/20 13:09:03;;;;;;;6.85;5.03;;;31.10;63.40;;;;;;5089283;28;20088;-40